createdAt,value
2018-09-10T00:01:18.798Z,72.46
2018-09-10T00:03:47.587Z,72.43
2018-09-10T00:06:16.273Z,72.33
2018-09-10T00:08:46.251Z,72.76
2018-09-10T00:11:14.925Z,72.56
2018-09-10T00:13:43.571Z,72.60
2018-09-10T00:16:12.230Z,71.91
2018-09-10T00:18:40.875Z,72.55
2018-09-10T00:21:09.525Z,72.78
2018-09-10T00:23:38.320Z,72.89
2018-09-10T00:26:06.962Z,73.24
2018-09-10T00:28:35.655Z,73.40
2018-09-10T00:31:04.399Z,73.42
2018-09-10T00:33:33.124Z,73.92
2018-09-10T00:36:01.813Z,73.73
2018-09-10T00:38:30.471Z,74.20
2018-09-10T00:40:59.131Z,73.34
2018-09-10T00:43:27.787Z,73.85
2018-09-10T00:45:56.507Z,73.73
2018-09-10T00:48:25.176Z,73.85
2018-09-10T00:50:53.809Z,74.07
2018-09-10T00:53:22.513Z,73.80
2018-09-10T00:55:51.186Z,74.41
2018-09-10T00:58:19.879Z,73.77
2018-09-10T01:00:48.614Z,73.85
2018-09-10T01:03:17.303Z,74.14
2018-09-10T01:05:45.968Z,74.48
2018-09-10T01:08:14.644Z,74.30
2018-09-10T01:10:43.285Z,74.86
2018-09-10T01:13:11.963Z,74.30
2018-09-10T01:15:40.608Z,73.98
2018-09-10T01:18:09.365Z,73.62
2018-09-10T01:20:38.028Z,73.78
2018-09-10T01:23:06.731Z,73.34
2018-09-10T01:25:35.436Z,73.96
2018-09-10T01:28:04.132Z,73.98
2018-09-10T01:30:33.277Z,73.94
2018-09-10T01:33:01.940Z,73.56
2018-09-10T01:35:33.245Z,73.03
2018-09-10T01:38:01.959Z,72.27
2018-09-10T01:40:30.658Z,72.69
2018-09-10T01:42:59.284Z,73.13
2018-09-10T01:45:27.922Z,72.83
2018-09-10T01:47:56.592Z,72.21
2018-09-10T01:50:25.270Z,72.80
2018-09-10T01:52:53.920Z,72.74
2018-09-10T01:55:22.581Z,72.98
2018-09-10T01:57:51.246Z,72.86
2018-09-10T02:00:19.940Z,72.57
2018-09-10T02:02:48.598Z,72.66
2018-09-10T02:05:17.276Z,73.18
2018-09-10T02:07:45.911Z,72.65
2018-09-10T02:10:14.692Z,72.26
2018-09-10T02:12:43.359Z,72.17
2018-09-10T02:15:12.007Z,72.34
2018-09-10T02:17:40.668Z,72.50
2018-09-10T02:20:09.427Z,72.58
2018-09-10T02:22:37.979Z,72.73
2018-09-10T02:25:07.095Z,72.33
2018-09-10T02:27:35.794Z,72.96
2018-09-10T02:30:04.990Z,72.93
2018-09-10T02:32:33.660Z,73.28
2018-09-10T02:35:02.328Z,73.05
2018-09-10T02:37:31.005Z,73.62
2018-09-10T02:39:59.685Z,73.85
2018-09-10T02:42:28.336Z,73.59
2018-09-10T02:44:57.012Z,74.06
2018-09-10T02:47:25.712Z,74.33
2018-09-10T02:49:54.492Z,74.29
2018-09-10T02:52:23.183Z,75.01
2018-09-10T02:54:52.770Z,74.53
2018-09-10T02:57:21.428Z,74.53
2018-09-10T02:59:50.113Z,74.43
2018-09-10T03:02:18.794Z,74.59
2018-09-10T03:04:47.428Z,75.37
2018-09-10T03:07:16.640Z,75.81
2018-09-10T03:09:45.640Z,75.39
2018-09-10T03:12:14.806Z,76.42
2018-09-10T03:14:43.502Z,76.07
2018-09-10T03:17:12.280Z,75.84
2018-09-10T03:19:41.101Z,75.97
2018-09-10T03:22:09.772Z,76.61
2018-09-10T03:24:38.491Z,76.49
2018-09-10T03:27:07.150Z,75.93
2018-09-10T03:29:35.795Z,76.25
2018-09-10T03:32:04.540Z,76.59
2018-09-10T03:34:33.228Z,76.69
2018-09-10T03:37:01.872Z,76.93
2018-09-10T03:39:30.572Z,76.86
2018-09-10T03:41:59.275Z,77.18
2018-09-10T03:44:27.962Z,77.51
2018-09-10T03:46:56.665Z,77.45
2018-09-10T03:49:25.366Z,77.58
2018-09-10T03:51:54.033Z,77.42
2018-09-10T03:54:22.759Z,77.04
2018-09-10T03:56:51.421Z,77.72
2018-09-10T03:59:20.411Z,77.76
2018-09-10T04:01:49.411Z,77.91
2018-09-10T04:04:18.260Z,77.61
2018-09-10T04:06:46.944Z,77.72
2018-09-10T04:09:15.620Z,77.32
2018-09-10T04:11:44.284Z,77.00
2018-09-10T04:14:13.100Z,76.84
2018-09-10T04:16:41.808Z,76.75
2018-09-10T04:19:10.484Z,76.52
2018-09-10T04:21:39.144Z,76.36
2018-09-10T04:24:07.846Z,76.20
2018-09-10T04:26:37.199Z,76.12
2018-09-10T04:29:05.871Z,75.96
2018-09-10T04:31:34.530Z,75.91
2018-09-10T04:34:03.204Z,75.39
2018-09-10T04:36:31.864Z,75.03
2018-09-10T04:39:00.732Z,75.24
2018-09-10T04:41:35.556Z,75.25
2018-09-10T04:44:04.653Z,75.49
2018-09-10T04:46:33.948Z,76.02
2018-09-10T04:49:02.697Z,75.69
2018-09-10T04:51:31.509Z,75.35
2018-09-10T04:54:00.309Z,76.23
2018-09-10T04:56:29.089Z,76.17
2018-09-10T04:58:58.488Z,76.53
2018-09-10T05:01:27.156Z,76.60
2018-09-10T05:03:55.859Z,76.68
2018-09-10T05:06:24.865Z,76.84
2018-09-10T05:08:53.535Z,77.32
2018-09-10T05:11:22.192Z,76.98
2018-09-10T05:13:50.861Z,77.16
2018-09-10T05:16:19.537Z,76.87
2018-09-10T05:18:48.281Z,76.29
2018-09-10T05:21:16.951Z,76.34
2018-09-10T05:23:45.651Z,75.90
2018-09-10T05:26:14.376Z,75.03
2018-09-10T05:28:43.063Z,74.72
2018-09-10T05:31:11.717Z,73.70
2018-09-10T05:33:40.371Z,72.98
2018-09-10T05:36:09.040Z,72.14
2018-09-10T05:38:37.710Z,71.85
2018-09-10T05:41:06.386Z,71.95
2018-09-10T05:43:35.061Z,71.48
2018-09-10T05:46:03.745Z,71.05
2018-09-10T05:48:32.415Z,71.33
2018-09-10T05:51:01.073Z,71.49
2018-09-10T05:53:29.764Z,70.86
2018-09-10T05:55:58.402Z,70.30
2018-09-10T05:58:27.081Z,69.71
2018-09-10T06:00:55.773Z,69.66
2018-09-10T06:03:24.464Z,70.21
2018-09-10T06:05:53.131Z,70.18
2018-09-10T06:08:21.848Z,70.23
2018-09-10T06:10:50.540Z,70.12
2018-09-10T06:13:19.215Z,70.31
2018-09-10T06:15:47.885Z,70.04
2018-09-10T06:18:16.542Z,69.96
2018-09-10T06:20:45.213Z,70.00
2018-09-10T06:23:13.970Z,69.42
2018-09-10T06:25:42.704Z,69.49
2018-09-10T06:28:11.410Z,69.27
2018-09-10T06:30:40.102Z,68.69
2018-09-10T06:33:08.896Z,68.28
2018-09-10T06:35:39.722Z,67.97
2018-09-10T06:38:09.005Z,68.02
2018-09-10T06:40:37.640Z,68.08
2018-09-10T06:43:06.504Z,67.58
2018-09-10T06:45:35.158Z,67.40
2018-09-10T06:48:03.878Z,67.47
2018-09-10T06:50:32.557Z,67.12
2018-09-10T06:53:01.242Z,66.52
2018-09-10T06:55:30.007Z,66.32
2018-09-10T06:57:58.783Z,65.79
2018-09-10T07:00:27.423Z,64.89
2018-09-10T07:02:56.077Z,64.24
2018-09-10T07:05:24.692Z,63.51
2018-09-10T07:07:53.442Z,62.01
2018-09-10T07:10:22.106Z,60.65
2018-09-10T07:12:53.043Z,60.94
2018-09-10T07:15:21.937Z,60.26
2018-09-10T07:17:51.417Z,59.23
2018-09-10T07:20:20.656Z,59.33
2018-09-10T07:22:49.804Z,59.54
2018-09-10T07:25:19.344Z,60.07
2018-09-10T07:27:48.156Z,60.99
2018-09-10T07:30:16.859Z,60.75
2018-09-10T07:32:45.589Z,61.04
2018-09-10T07:35:14.288Z,61.04
2018-09-10T07:37:43.025Z,60.66
2018-09-10T07:40:11.717Z,60.25
2018-09-10T07:42:40.461Z,60.44
2018-09-10T07:45:09.183Z,60.62
2018-09-10T07:47:38.144Z,60.09
2018-09-10T07:50:06.796Z,59.85
2018-09-10T07:52:36.527Z,59.71
2018-09-10T07:55:05.364Z,59.39
2018-09-10T07:57:34.028Z,59.34
2018-09-10T08:00:03.039Z,58.85
2018-09-10T08:02:31.728Z,58.93
2018-09-10T08:05:00.771Z,58.94
2018-09-10T08:07:29.449Z,58.35
2018-09-10T08:09:58.276Z,57.00
2018-09-10T08:12:27.317Z,56.31
2018-09-10T08:14:56.849Z,55.76
2018-09-10T08:17:25.785Z,55.92
2018-09-10T08:19:54.978Z,55.64
2018-09-10T08:22:23.993Z,56.00
2018-09-10T08:24:52.696Z,56.31
2018-09-10T08:27:21.393Z,56.13
2018-09-10T08:29:50.091Z,55.95
2018-09-10T08:32:18.765Z,55.72
2018-09-10T08:34:47.596Z,55.43
2018-09-10T08:37:17.425Z,55.08
2018-09-10T08:39:46.123Z,54.65
2018-09-10T08:42:14.811Z,54.60
2018-09-10T08:44:43.476Z,54.42
2018-09-10T08:47:12.145Z,53.93
2018-09-10T08:49:40.969Z,53.68
2018-09-10T08:52:09.612Z,54.02
2018-09-10T08:54:38.526Z,53.55
2018-09-10T08:57:07.094Z,52.93
2018-09-10T08:59:35.798Z,52.35
2018-09-10T09:02:04.476Z,52.35
2018-09-10T09:04:33.169Z,52.16
2018-09-10T09:07:01.834Z,51.59
2018-09-10T09:09:30.484Z,51.34
2018-09-10T09:11:59.277Z,51.37
2018-09-10T09:14:28.100Z,51.00
2018-09-10T09:16:56.806Z,51.88
2018-09-10T09:19:25.703Z,52.74
2018-09-10T09:21:54.348Z,52.42
2018-09-10T09:24:23.020Z,52.32
2018-09-10T09:26:51.793Z,52.74
2018-09-10T09:29:20.450Z,52.28
2018-09-10T09:31:49.138Z,52.35
2018-09-10T09:34:17.831Z,52.76
2018-09-10T09:36:52.014Z,53.13
2018-09-10T09:39:26.188Z,53.25
2018-09-10T09:42:00.213Z,52.70
2018-09-10T09:44:34.314Z,52.14
2018-09-10T09:47:03.028Z,52.77
2018-09-10T09:49:32.758Z,53.04
2018-09-10T09:52:02.212Z,52.25
2018-09-10T09:54:30.937Z,52.33
2018-09-10T09:56:59.723Z,52.62
2018-09-10T09:59:28.685Z,52.94
2018-09-10T10:02:02.762Z,53.20
2018-09-10T10:04:31.513Z,53.62
2018-09-10T10:07:00.242Z,54.17
2018-09-10T10:09:29.223Z,54.75
2018-09-10T10:11:58.722Z,54.52
2018-09-10T10:14:27.572Z,54.88
2018-09-10T10:16:56.271Z,54.83
2018-09-10T10:19:25.051Z,55.64
2018-09-10T10:21:53.776Z,55.76
2018-09-10T10:24:22.589Z,55.66
2018-09-10T10:26:51.806Z,55.75
2018-09-10T10:29:21.163Z,55.71
2018-09-10T10:31:49.816Z,55.76
2018-09-10T10:34:18.500Z,55.21
2018-09-10T10:36:47.956Z,56.27
2018-09-10T10:39:16.796Z,56.23
2018-09-10T10:41:45.421Z,55.80
2018-09-10T10:44:14.485Z,56.48
2018-09-10T10:46:43.154Z,56.47
2018-09-10T10:49:11.900Z,55.66
2018-09-10T10:51:41.309Z,55.76
2018-09-10T10:54:10.140Z,56.14
2018-09-10T10:56:38.771Z,56.79
2018-09-10T10:59:07.473Z,56.80
2018-09-10T11:01:36.153Z,57.10
2018-09-10T11:04:05.009Z,56.76
2018-09-10T11:06:34.202Z,57.01
2018-09-10T11:09:02.972Z,56.79
2018-09-10T11:11:31.712Z,56.90
2018-09-10T11:14:01.015Z,56.88
2018-09-10T11:16:29.721Z,56.84
2018-09-10T11:18:58.415Z,56.46
2018-09-10T11:21:27.084Z,56.83
2018-09-10T11:23:55.764Z,55.65
2018-09-10T11:26:24.690Z,55.05
2018-09-10T11:28:53.608Z,54.89
2018-09-10T11:31:22.291Z,53.50
2018-09-10T11:33:50.990Z,52.25
2018-09-10T11:36:20.169Z,50.08
2018-09-10T11:38:48.890Z,49.45
2018-09-10T11:41:17.616Z,50.88
2018-09-10T11:43:46.360Z,51.67
2018-09-10T11:46:15.069Z,51.24
2018-09-10T11:48:43.756Z,51.74
2018-09-10T11:51:12.420Z,51.67
2018-09-10T11:53:41.132Z,52.29
2018-09-10T11:56:10.190Z,52.32
2018-09-10T11:58:38.952Z,52.57
2018-09-10T12:01:07.621Z,52.70
2018-09-10T12:03:36.402Z,53.49
2018-09-10T12:06:05.064Z,52.83
2018-09-10T12:08:33.756Z,52.41
2018-09-10T12:11:02.415Z,52.91
2018-09-10T12:13:31.168Z,52.24
2018-09-10T12:15:59.880Z,52.15
2018-09-10T12:18:28.593Z,52.54
2018-09-10T12:20:57.350Z,52.28
2018-09-10T12:23:26.032Z,51.95
2018-09-10T12:25:54.743Z,52.03
2018-09-10T12:28:23.519Z,52.42
2018-09-10T12:30:52.221Z,52.59
2018-09-10T12:33:20.932Z,52.80
2018-09-10T12:35:49.678Z,53.31
2018-09-10T12:38:18.382Z,53.83
2018-09-10T12:40:47.125Z,53.60
2018-09-10T12:43:15.809Z,54.02
2018-09-10T12:45:44.500Z,53.93
2018-09-10T12:48:13.421Z,53.67
2018-09-10T12:50:42.113Z,53.95
2018-09-10T12:53:10.790Z,54.39
2018-09-10T12:55:39.455Z,55.02
2018-09-10T12:58:08.181Z,55.21
2018-09-10T13:00:36.863Z,55.14
2018-09-10T13:03:05.576Z,55.50
2018-09-10T13:05:34.246Z,56.41
2018-09-10T13:08:02.880Z,57.05
2018-09-10T13:10:31.654Z,56.82
2018-09-10T13:13:00.279Z,56.77
2018-09-10T13:15:28.952Z,56.69
2018-09-10T13:17:57.632Z,58.76
2018-09-10T13:20:26.364Z,57.36
2018-09-10T13:22:55.040Z,57.20
2018-09-10T13:25:23.781Z,57.54
2018-09-10T13:27:52.501Z,57.14
2018-09-10T13:30:21.294Z,57.02
2018-09-10T13:32:49.994Z,57.06
2018-09-10T13:35:18.756Z,56.76
2018-09-10T13:37:47.416Z,57.30
2018-09-10T13:40:16.136Z,57.56
2018-09-10T13:42:44.800Z,56.60
2018-09-10T13:45:13.508Z,54.69
2018-09-10T13:47:42.232Z,53.62
2018-09-10T13:50:10.955Z,52.89
2018-09-10T13:52:39.612Z,51.49
2018-09-10T13:55:08.261Z,50.77
2018-09-10T13:57:36.912Z,50.70
2018-09-10T14:00:05.731Z,50.63
2018-09-10T14:02:35.045Z,51.13
2018-09-10T14:05:03.813Z,50.50
2018-09-10T14:07:32.483Z,49.40
2018-09-10T14:10:01.220Z,49.87
2018-09-10T14:12:29.945Z,49.13
2018-09-10T14:14:58.596Z,49.20
2018-09-10T14:17:27.354Z,48.77
2018-09-10T14:19:56.300Z,48.81
2018-09-10T14:22:25.622Z,47.63
2018-09-10T14:24:54.302Z,46.37
2018-09-10T14:27:23.039Z,47.05
2018-09-10T14:29:51.824Z,46.05
2018-09-10T14:32:20.499Z,45.92
2018-09-10T14:34:49.859Z,45.45
2018-09-10T14:37:18.527Z,46.32
2018-09-10T14:39:47.220Z,47.49
2018-09-10T14:42:16.009Z,47.16
2018-09-10T14:44:44.621Z,47.20
2018-09-10T14:47:13.328Z,47.50
2018-09-10T14:49:42.213Z,48.04
2018-09-10T14:52:10.919Z,46.56
2018-09-10T14:54:39.646Z,46.82
2018-09-10T14:57:08.412Z,47.57
2018-09-10T14:59:37.096Z,47.29
2018-09-10T15:02:05.814Z,47.03
2018-09-10T15:04:34.510Z,48.12
2018-09-10T15:07:03.179Z,48.31
2018-09-10T15:09:31.904Z,48.92
2018-09-10T15:12:00.739Z,49.36
2018-09-10T15:14:29.520Z,49.63
2018-09-10T15:16:58.118Z,50.16
2018-09-10T15:19:26.788Z,50.22
2018-09-10T15:21:55.552Z,50.69
2018-09-10T15:24:24.286Z,51.10
2018-09-10T15:26:53.152Z,51.19
2018-09-10T15:29:21.816Z,51.16
2018-09-10T15:31:50.576Z,51.81
2018-09-10T15:34:19.262Z,52.48
2018-09-10T15:36:47.937Z,52.97
2018-09-10T15:39:16.686Z,53.42
2018-09-10T15:41:45.351Z,54.20
2018-09-10T15:44:14.064Z,55.32
2018-09-10T15:46:42.741Z,56.50
2018-09-10T15:49:11.486Z,57.37
2018-09-10T15:51:40.178Z,58.34
2018-09-10T15:54:08.839Z,59.65
2018-09-10T15:56:37.482Z,59.85
2018-09-10T15:59:06.211Z,60.23
2018-09-10T16:01:35.028Z,60.43
2018-09-10T16:04:03.688Z,60.56
2018-09-10T16:06:32.378Z,60.72
2018-09-10T16:09:01.032Z,61.13
2018-09-10T16:11:29.681Z,61.58
2018-09-10T16:13:58.997Z,61.78
2018-09-10T16:16:27.968Z,61.93
2018-09-10T16:19:00.216Z,62.01
2018-09-10T16:21:30.015Z,62.15
2018-09-10T16:23:59.280Z,62.69
2018-09-10T16:26:28.044Z,63.03
2018-09-10T16:28:56.780Z,63.26
2018-09-10T16:31:25.433Z,63.69
2018-09-10T16:33:54.111Z,64.11
2018-09-10T16:36:25.019Z,64.43
2018-09-10T16:38:53.709Z,65.10
2018-09-10T16:41:22.409Z,65.47
2018-09-10T16:43:51.190Z,66.09
2018-09-10T16:46:19.858Z,66.34
2018-09-10T16:48:48.652Z,66.12
2018-09-10T16:51:17.307Z,66.83
2018-09-10T16:53:46.028Z,67.14
2018-09-10T16:56:14.723Z,67.28
2018-09-10T16:58:43.376Z,66.95
2018-09-10T17:01:12.105Z,66.57
2018-09-10T17:03:40.984Z,66.40
2018-09-10T17:06:09.647Z,66.33
2018-09-10T17:08:38.408Z,66.86
2018-09-10T17:11:07.130Z,66.86
2018-09-10T17:13:35.914Z,67.08
2018-09-10T17:16:04.591Z,67.86
2018-09-10T17:18:33.276Z,68.24
2018-09-10T17:21:01.946Z,69.06
2018-09-10T17:23:30.672Z,69.95
2018-09-10T17:26:00.127Z,70.38
2018-09-10T17:28:28.788Z,69.40
2018-09-10T17:30:57.616Z,70.27
2018-09-10T17:33:26.330Z,69.86
2018-09-10T17:35:55.049Z,67.39
2018-09-10T17:38:23.724Z,67.55
2018-09-10T17:40:52.428Z,67.81
2018-09-10T17:43:21.178Z,68.29
2018-09-10T17:45:50.122Z,67.77
2018-09-10T17:48:18.792Z,67.11
2018-09-10T17:50:47.975Z,67.99
2018-09-10T17:53:16.754Z,68.42
2018-09-10T17:55:45.582Z,69.38
2018-09-10T17:58:14.328Z,69.22
2018-09-10T18:00:45.913Z,69.49
2018-09-10T18:03:14.700Z,69.89
2018-09-10T18:05:44.161Z,69.55
2018-09-10T18:08:13.381Z,69.34
2018-09-10T18:10:42.538Z,69.70
2018-09-10T18:13:11.242Z,69.87
2018-09-10T18:15:39.909Z,70.17
2018-09-10T18:18:08.594Z,69.39
2018-09-10T18:20:37.321Z,69.89
2018-09-10T18:23:05.992Z,69.86
2018-09-10T18:25:34.692Z,69.96
2018-09-10T18:28:03.430Z,69.37
2018-09-10T18:30:32.104Z,69.59
2018-09-10T18:33:00.892Z,69.33
2018-09-10T18:35:29.572Z,69.28
2018-09-10T18:37:58.294Z,68.95
2018-09-10T18:40:27.046Z,69.22
2018-09-10T18:42:57.318Z,69.30
2018-09-10T18:45:26.718Z,69.09
2018-09-10T18:48:00.496Z,69.08
2018-09-10T18:50:29.350Z,68.99
2018-09-10T18:52:58.490Z,69.17
2018-09-10T18:55:27.820Z,68.81
2018-09-10T18:57:56.777Z,69.08
2018-09-10T19:00:25.572Z,68.45
2018-09-10T19:02:54.273Z,68.59
2018-09-10T19:05:23.038Z,68.86
2018-09-10T19:07:52.316Z,68.79
2018-09-10T19:10:21.233Z,68.91
2018-09-10T19:12:49.961Z,68.42
2018-09-10T19:15:20.735Z,68.10
2018-09-10T19:17:50.405Z,68.42
2018-09-10T19:20:20.594Z,68.36
2018-09-10T19:22:49.306Z,68.17
2018-09-10T19:25:18.412Z,68.26
2018-09-10T19:27:47.358Z,68.15
2018-09-10T19:30:17.365Z,68.31
2018-09-10T19:32:46.362Z,68.21
2018-09-10T19:35:15.002Z,68.38
2018-09-10T19:37:43.749Z,68.31
2018-09-10T19:40:12.408Z,68.16
2018-09-10T19:42:41.102Z,67.89
2018-09-10T19:45:09.775Z,68.25
2018-09-10T19:47:38.455Z,67.86
2018-09-10T19:50:07.492Z,68.42
2018-09-10T19:52:36.187Z,68.18
2018-09-10T19:55:04.996Z,68.34
2018-09-10T19:57:33.754Z,68.89
2018-09-10T20:00:02.539Z,69.26
2018-09-10T20:02:32.041Z,69.04
2018-09-10T20:05:01.329Z,69.15
2018-09-10T20:07:30.072Z,69.26
2018-09-10T20:09:58.767Z,69.73
2018-09-10T20:12:27.448Z,69.86
2018-09-10T20:14:56.197Z,69.93
2018-09-10T20:17:24.916Z,71.11
2018-09-10T20:19:53.618Z,71.85
2018-09-10T20:22:22.416Z,72.37
2018-09-10T20:24:51.139Z,72.24
2018-09-10T20:27:19.813Z,71.98
2018-09-10T20:29:48.499Z,72.11
2018-09-10T20:32:17.206Z,72.39
2018-09-10T20:34:45.864Z,72.63
2018-09-10T20:37:14.540Z,73.98
2018-09-10T20:39:43.348Z,74.38
2018-09-10T20:42:11.948Z,74.33
2018-09-10T20:44:40.696Z,73.88
2018-09-10T20:47:09.442Z,74.25
2018-09-10T20:49:38.148Z,74.81
2018-09-10T20:52:06.972Z,75.13
2018-09-10T20:54:35.597Z,75.32
2018-09-10T20:57:04.275Z,75.32
2018-09-10T20:59:33.018Z,75.78
2018-09-10T21:02:01.710Z,75.73
2018-09-10T21:04:30.382Z,75.51
2018-09-10T21:06:59.060Z,76.11
2018-09-10T21:09:27.821Z,76.23
2018-09-10T21:11:56.548Z,76.14
2018-09-10T21:14:25.244Z,76.87
2018-09-10T21:16:53.901Z,76.80
2018-09-10T21:19:22.552Z,76.47
2018-09-10T21:21:51.191Z,76.54
2018-09-10T21:24:19.835Z,76.58
2018-09-10T21:26:48.591Z,75.91
2018-09-10T21:29:17.276Z,76.63
2018-09-10T21:31:46.254Z,76.87
2018-09-10T21:34:14.924Z,77.03
2018-09-10T21:36:43.601Z,77.46
2018-09-10T21:39:12.287Z,78.00
2018-09-10T21:41:41.088Z,77.77
2018-09-10T21:44:10.204Z,77.25
2018-09-10T21:46:38.860Z,77.29
2018-09-10T21:49:07.798Z,76.87
2018-09-10T21:51:36.815Z,77.26
2018-09-10T21:54:05.476Z,77.00
2018-09-10T21:56:34.145Z,77.13
2018-09-10T21:59:02.860Z,76.68
2018-09-10T22:01:31.570Z,77.24
2018-09-10T22:04:00.282Z,77.35
2018-09-10T22:06:29.017Z,77.87
2018-09-10T22:08:57.688Z,77.93
2018-09-10T22:11:26.389Z,77.55
2018-09-10T22:13:55.101Z,78.42
2018-09-10T22:16:24.342Z,77.81
2018-09-10T22:18:53.044Z,78.40
2018-09-10T22:21:21.860Z,79.09
2018-09-10T22:23:50.544Z,79.16
2018-09-10T22:26:19.273Z,79.23
2018-09-10T22:28:47.957Z,79.24
2018-09-10T22:31:16.656Z,78.85
2018-09-10T22:33:45.352Z,78.75
2018-09-10T22:36:14.124Z,78.30
2018-09-10T22:38:42.892Z,78.05
2018-09-10T22:41:11.781Z,78.27
2018-09-10T22:43:40.448Z,78.99
2018-09-10T22:46:09.102Z,78.66
2018-09-10T22:48:37.759Z,78.78
2018-09-10T22:51:06.484Z,78.13
2018-09-10T22:53:35.157Z,77.68
2018-09-10T22:56:03.796Z,77.65
2018-09-10T22:58:32.446Z,77.74
2018-09-10T23:01:01.123Z,77.93
2018-09-10T23:03:29.792Z,78.08
2018-09-10T23:05:58.682Z,78.71
2018-09-10T23:08:27.477Z,78.55
2018-09-10T23:10:56.107Z,79.22
2018-09-10T23:13:24.845Z,79.63
2018-09-10T23:15:53.668Z,80.21
2018-09-10T23:18:22.388Z,79.93
2018-09-10T23:20:51.048Z,80.41
2018-09-10T23:23:19.760Z,79.80
2018-09-10T23:25:48.436Z,78.88
2018-09-10T23:28:17.487Z,79.10
2018-09-10T23:30:46.136Z,78.95
2018-09-10T23:33:14.816Z,78.88
2018-09-10T23:35:43.541Z,79.00
2018-09-10T23:38:12.252Z,78.49
2018-09-10T23:40:41.192Z,78.41
2018-09-10T23:43:10.087Z,78.15
2018-09-10T23:45:38.773Z,78.45
2018-09-10T23:48:07.303Z,78.70
2018-09-10T23:50:35.991Z,78.27
2018-09-10T23:53:04.714Z,78.51
2018-09-10T23:55:33.414Z,78.42
2018-09-10T23:58:02.081Z,78.45
